createdAt,value
2023-05-02T00:00:01.644Z,7.95
2023-05-02T00:01:46.657Z,7.83
2023-05-02T00:03:08.478Z,7.50
2023-05-02T00:04:30.648Z,7.78
2023-05-02T00:05:52.300Z,7.40
2023-05-02T00:07:13.997Z,7.57
2023-05-02T00:08:36.173Z,7.09
2023-05-02T00:10:00.713Z,7.05
2023-05-02T00:11:34.649Z,8.36
2023-05-02T00:12:56.210Z,7.92
2023-05-02T00:14:17.935Z,7.15
2023-05-02T00:15:40.120Z,7.98
2023-05-02T00:17:13.724Z,7.61
2023-05-02T00:18:35.421Z,7.60
2023-05-02T00:19:57.468Z,7.42
2023-05-02T00:21:22.339Z,7.44
2023-05-02T00:22:55.740Z,7.47
2023-05-02T00:24:19.724Z,7.30
2023-05-02T00:25:43.909Z,7.17
2023-05-02T00:27:06.184Z,7.44
2023-05-02T00:28:28.450Z,7.22
2023-05-02T00:29:59.636Z,7.62
2023-05-02T00:31:40.372Z,7.63
2023-05-02T00:33:02.685Z,7.53
2023-05-02T00:34:26.657Z,7.24
2023-05-02T00:35:55.789Z,7.87
2023-05-02T00:37:17.513Z,7.64
2023-05-02T00:38:39.405Z,7.23
2023-05-02T00:40:13.059Z,7.56
2023-05-02T00:41:37.245Z,7.27
2023-05-02T00:43:20.047Z,7.19
2023-05-02T00:44:45.126Z,7.29
2023-05-02T00:46:09.064Z,7.69
2023-05-02T00:47:31.537Z,7.25
2023-05-02T00:48:53.286Z,7.51
2023-05-02T00:50:15.110Z,7.29
2023-05-02T00:51:44.191Z,7.46
2023-05-02T00:53:12.964Z,7.71
2023-05-02T00:54:34.902Z,7.95
2023-05-02T00:55:56.976Z,7.60
2023-05-02T00:57:26.801Z,7.63
2023-05-02T00:58:48.678Z,7.87
2023-05-02T01:00:12.721Z,7.75
2023-05-02T01:01:42.115Z,8.14
2023-05-02T01:03:06.561Z,7.90
2023-05-02T01:04:28.079Z,8.26
2023-05-02T01:05:52.383Z,8.34
2023-05-02T01:07:14.136Z,8.26
2023-05-02T01:08:38.109Z,7.68
2023-05-02T01:10:00.077Z,8.16
2023-05-02T01:11:26.368Z,7.87
2023-05-02T01:12:48.352Z,8.13
2023-05-02T01:14:12.255Z,7.71
2023-05-02T01:15:37.527Z,8.25
2023-05-02T01:17:06.852Z,8.25
2023-05-02T01:18:28.422Z,8.15
2023-05-02T01:19:52.695Z,8.39
2023-05-02T01:21:22.297Z,8.14
2023-05-02T01:22:48.841Z,7.67
2023-05-02T01:24:10.479Z,7.86
2023-05-02T01:25:46.739Z,7.89
2023-05-02T01:27:10.780Z,8.06
2023-05-02T01:28:32.736Z,9.04
2023-05-02T01:29:54.727Z,7.97
2023-05-02T01:31:26.247Z,7.88
2023-05-02T01:32:48.450Z,8.29
2023-05-02T01:34:12.419Z,8.47
2023-05-02T01:35:34.355Z,7.25
2023-05-02T01:36:56.643Z,7.82
2023-05-02T01:38:21.057Z,7.85
2023-05-02T01:39:50.304Z,8.30
2023-05-02T01:41:16.288Z,8.42
2023-05-02T01:42:57.219Z,8.42
2023-05-02T01:44:18.773Z,8.12
2023-05-02T01:45:40.901Z,7.81
2023-05-02T01:47:03.486Z,8.45
2023-05-02T01:48:28.357Z,8.29
2023-05-02T01:50:04.273Z,8.26
2023-05-02T01:51:40.640Z,8.58
2023-05-02T01:53:14.687Z,8.69
2023-05-02T01:54:38.924Z,7.92
2023-05-02T01:56:12.203Z,7.81
2023-05-02T01:57:47.866Z,7.93
2023-05-02T01:59:09.821Z,8.13
2023-05-02T02:00:34.491Z,8.37
2023-05-02T02:02:04.027Z,8.42
2023-05-02T02:03:25.992Z,7.88
2023-05-02T02:04:48.990Z,8.02
2023-05-02T02:06:17.519Z,8.47
2023-05-02T02:07:39.513Z,7.58
2023-05-02T02:09:04.230Z,8.31
2023-05-02T02:10:34.047Z,7.82
2023-05-02T02:11:57.935Z,8.17
2023-05-02T02:13:21.513Z,8.16
2023-05-02T02:14:43.397Z,8.13
2023-05-02T02:16:05.110Z,8.56
2023-05-02T02:17:26.728Z,8.76
2023-05-02T02:18:48.880Z,8.11
2023-05-02T02:20:18.268Z,8.64
2023-05-02T02:21:42.503Z,8.76
2023-05-02T02:23:15.978Z,8.77
2023-05-02T02:24:37.940Z,8.32
2023-05-02T02:26:06.723Z,7.77
2023-05-02T02:27:30.747Z,8.77
2023-05-02T02:28:52.578Z,8.80
2023-05-02T02:30:16.472Z,8.77
2023-05-02T02:31:40.695Z,8.88
2023-05-02T02:33:04.573Z,8.61
2023-05-02T02:34:27.325Z,8.46
2023-05-02T02:35:52.801Z,8.67
2023-05-02T02:37:16.732Z,8.76
2023-05-02T02:38:42.361Z,8.95
2023-05-02T02:40:06.607Z,9.52
2023-05-02T02:41:28.457Z,8.33
2023-05-02T02:42:53.384Z,8.57
2023-05-02T02:44:28.853Z,8.40
2023-05-02T02:45:50.937Z,8.76
2023-05-02T02:47:12.258Z,9.01
2023-05-02T02:48:36.706Z,8.54
2023-05-02T02:50:00.822Z,8.61
2023-05-02T02:51:22.401Z,8.45
2023-05-02T02:52:43.926Z,8.27
2023-05-02T02:54:19.103Z,8.80
2023-05-02T02:55:50.564Z,8.16
2023-05-02T02:57:13.024Z,8.89
2023-05-02T02:58:34.707Z,8.24
2023-05-02T02:59:58.773Z,8.49
2023-05-02T03:01:23.280Z,8.93
2023-05-02T03:02:48.185Z,8.36
2023-05-02T03:04:09.825Z,8.24
2023-05-02T03:05:31.898Z,9.02
2023-05-02T03:06:58.253Z,8.88
2023-05-02T03:08:20.100Z,8.72
2023-05-02T03:09:42.093Z,9.07
2023-05-02T03:11:06.521Z,9.23
2023-05-02T03:12:40.127Z,8.59
2023-05-02T03:14:04.168Z,8.84
2023-05-02T03:15:28.237Z,8.99
2023-05-02T03:16:55.249Z,8.83
2023-05-02T03:18:19.420Z,8.95
2023-05-02T03:19:41.399Z,9.10
2023-05-02T03:21:05.549Z,8.70
2023-05-02T03:22:27.439Z,8.54
2023-05-02T03:23:49.591Z,8.89
2023-05-02T03:25:25.859Z,9.19
2023-05-02T03:26:59.922Z,8.53
2023-05-02T03:28:24.137Z,9.28
2023-05-02T03:29:46.722Z,8.92
2023-05-02T03:31:08.902Z,9.08
2023-05-02T03:32:42.454Z,8.96
2023-05-02T03:34:07.697Z,8.73
2023-05-02T03:35:31.656Z,8.50
2023-05-02T03:36:53.513Z,8.82
2023-05-02T03:38:15.200Z,8.68
2023-05-02T03:39:38.325Z,8.38
2023-05-02T03:41:04.625Z,9.09
2023-05-02T03:42:41.080Z,8.30
2023-05-02T03:44:08.370Z,8.68
2023-05-02T03:45:41.916Z,8.64
2023-05-02T03:47:15.282Z,8.46
2023-05-02T03:48:49.522Z,8.64
2023-05-02T03:50:30.573Z,8.98
2023-05-02T03:51:52.793Z,8.75
2023-05-02T03:53:16.246Z,8.65
2023-05-02T03:54:43.792Z,8.85
2023-05-02T03:56:05.763Z,8.71
2023-05-02T03:57:31.484Z,8.87
2023-05-02T03:58:57.942Z,8.70
2023-05-02T04:00:31.630Z,9.10
2023-05-02T04:01:57.885Z,9.01
2023-05-02T04:03:29.820Z,8.93
2023-05-02T04:04:53.450Z,8.88
2023-05-02T04:06:16.540Z,9.14
2023-05-02T04:07:41.323Z,8.51
2023-05-02T04:09:03.375Z,8.66
2023-05-02T04:10:31.855Z,8.91
2023-05-02T04:11:56.228Z,8.85
2023-05-02T04:13:18.030Z,9.07
2023-05-02T04:14:42.250Z,8.74
2023-05-02T04:16:04.770Z,8.59
2023-05-02T04:17:43.379Z,8.57
2023-05-02T04:19:07.682Z,7.86
2023-05-02T04:20:32.534Z,8.70
2023-05-02T04:21:54.302Z,8.26
2023-05-02T04:23:18.049Z,8.90
2023-05-02T04:24:44.751Z,8.43
2023-05-02T04:26:07.093Z,8.69
2023-05-02T04:27:35.372Z,8.78
2023-05-02T04:29:11.219Z,8.97
2023-05-02T04:30:45.331Z,8.59
2023-05-02T04:32:15.552Z,8.93
2023-05-02T04:33:39.907Z,9.28
2023-05-02T04:35:15.405Z,9.15
2023-05-02T04:36:37.892Z,9.78
2023-05-02T04:38:07.608Z,9.11
2023-05-02T04:39:29.461Z,8.92
2023-05-02T04:40:57.586Z,8.68
2023-05-02T04:42:29.124Z,9.43
2023-05-02T04:43:59.580Z,9.80
2023-05-02T04:45:21.094Z,9.63
2023-05-02T04:46:44.884Z,9.79
2023-05-02T04:48:09.600Z,8.86
2023-05-02T04:49:43.362Z,9.06
2023-05-02T04:51:05.422Z,8.95
2023-05-02T04:52:29.399Z,8.60
2023-05-02T04:53:53.407Z,9.13
2023-05-02T04:55:14.898Z,9.22
2023-05-02T04:56:39.391Z,9.12
2023-05-02T04:58:12.882Z,9.87
2023-05-02T04:59:37.868Z,9.55
2023-05-02T05:01:00.757Z,9.21
2023-05-02T05:02:25.845Z,9.45
2023-05-02T05:03:58.081Z,9.33
2023-05-02T05:05:20.339Z,9.29
2023-05-02T05:06:54.671Z,9.88
2023-05-02T05:08:18.928Z,9.64
2023-05-02T05:09:45.608Z,9.59
2023-05-02T05:11:07.147Z,9.91
2023-05-02T05:12:41.090Z,9.49
2023-05-02T05:14:06.136Z,9.36
2023-05-02T05:15:29.853Z,8.97
2023-05-02T05:16:55.572Z,9.96
2023-05-02T05:18:29.396Z,10.05
2023-05-02T05:19:53.348Z,9.53
2023-05-02T05:21:22.218Z,9.22
2023-05-02T05:22:45.002Z,9.44
2023-05-02T05:24:19.253Z,9.30
2023-05-02T05:25:48.954Z,9.84
2023-05-02T05:27:12.252Z,9.42
2023-05-02T05:28:39.304Z,9.71
2023-05-02T05:30:01.664Z,9.87
2023-05-02T05:31:24.438Z,9.71
2023-05-02T05:32:50.126Z,8.86
2023-05-02T05:34:23.088Z,9.31
2023-05-02T05:36:04.002Z,8.78
2023-05-02T05:37:25.567Z,9.38
2023-05-02T05:38:50.870Z,8.94
2023-05-02T05:40:22.051Z,9.45
2023-05-02T05:41:50.853Z,9.21
2023-05-02T05:43:12.445Z,10.04
2023-05-02T05:44:34.419Z,9.84
2023-05-02T05:45:58.461Z,9.37
2023-05-02T05:47:31.264Z,9.52
2023-05-02T05:48:53.431Z,8.77
2023-05-02T05:50:17.410Z,8.83
2023-05-02T05:51:47.576Z,9.22
2023-05-02T05:53:23.858Z,8.84
2023-05-02T05:54:48.487Z,8.35
2023-05-02T05:56:10.172Z,9.15
2023-05-02T05:57:34.245Z,8.18
2023-05-02T05:58:59.255Z,8.41
2023-05-02T06:00:23.346Z,8.01
2023-05-02T06:01:45.564Z,8.09
2023-05-02T06:03:09.775Z,7.40
2023-05-02T06:04:31.926Z,7.65
2023-05-02T06:05:56.288Z,7.54
2023-05-02T06:07:17.577Z,7.19
2023-05-02T06:08:40.368Z,7.35
2023-05-02T06:10:02.342Z,7.36
2023-05-02T06:11:29.252Z,7.39
2023-05-02T06:12:51.807Z,7.40
2023-05-02T06:14:16.740Z,7.18
2023-05-02T06:15:40.156Z,7.25
2023-05-02T06:17:04.437Z,6.79
2023-05-02T06:18:26.332Z,7.16
2023-05-02T06:19:50.908Z,6.90
2023-05-02T06:21:14.610Z,7.56
2023-05-02T06:22:36.707Z,7.65
2023-05-02T06:24:00.807Z,7.05
2023-05-02T06:25:22.512Z,6.90
2023-05-02T06:26:44.644Z,7.02
2023-05-02T06:28:06.959Z,7.15
2023-05-02T06:29:29.074Z,6.89
2023-05-02T06:30:51.046Z,6.88
2023-05-02T06:32:12.742Z,6.73
2023-05-02T06:33:35.408Z,7.27
2023-05-02T06:34:59.685Z,7.44
2023-05-02T06:36:28.464Z,6.99
2023-05-02T06:37:50.592Z,7.48
2023-05-02T06:39:19.767Z,7.14
2023-05-02T06:40:45.280Z,7.42
2023-05-02T06:42:06.812Z,7.49
2023-05-02T06:43:29.260Z,7.10
2023-05-02T06:44:51.407Z,7.33
2023-05-02T06:46:17.464Z,6.89
2023-05-02T06:47:39.300Z,7.71
2023-05-02T06:49:00.879Z,7.36
2023-05-02T06:50:30.129Z,7.34
2023-05-02T06:51:52.198Z,6.66
2023-05-02T06:53:14.206Z,7.51
2023-05-02T06:54:43.876Z,7.24
2023-05-02T06:56:07.664Z,7.94
2023-05-02T06:57:36.878Z,7.61
2023-05-02T06:58:58.477Z,7.84
2023-05-02T07:00:19.960Z,7.94
2023-05-02T07:01:42.335Z,7.30
2023-05-02T07:03:04.337Z,8.36
2023-05-02T07:04:30.010Z,8.05
2023-05-02T07:05:52.151Z,7.50
2023-05-02T07:07:13.660Z,7.96
2023-05-02T07:08:37.873Z,7.35
2023-05-02T07:09:59.957Z,7.36
2023-05-02T07:11:23.512Z,7.71
2023-05-02T07:12:45.580Z,7.73
2023-05-02T07:14:07.271Z,7.65
2023-05-02T07:15:28.997Z,8.09
2023-05-02T07:16:50.961Z,7.80
2023-05-02T07:18:12.602Z,8.00
2023-05-02T07:19:38.855Z,8.20
2023-05-02T07:21:02.825Z,8.47
2023-05-02T07:22:27.001Z,8.04
2023-05-02T07:23:49.772Z,8.16
2023-05-02T07:25:11.204Z,8.31
2023-05-02T07:26:32.638Z,8.78
2023-05-02T07:27:54.461Z,8.20
2023-05-02T07:29:18.183Z,8.62
2023-05-02T07:30:40.254Z,8.42
2023-05-02T07:32:02.281Z,8.78
2023-05-02T07:33:26.000Z,9.03
2023-05-02T07:34:48.411Z,8.99
2023-05-02T07:36:12.671Z,8.05
2023-05-02T07:37:41.953Z,8.53
2023-05-02T07:39:04.037Z,8.70
2023-05-02T07:40:25.792Z,8.25
2023-05-02T07:41:47.778Z,8.78
2023-05-02T07:43:11.336Z,8.32
2023-05-02T07:44:34.981Z,8.67
2023-05-02T07:45:57.170Z,8.76
2023-05-02T07:47:18.606Z,8.09
2023-05-02T07:48:42.093Z,8.77
2023-05-02T07:50:11.391Z,8.65
2023-05-02T07:51:36.348Z,8.19
2023-05-02T07:52:58.111Z,8.45
2023-05-02T07:54:19.357Z,8.40
2023-05-02T07:55:43.943Z,8.57
2023-05-02T07:57:08.703Z,8.85
2023-05-02T07:58:30.318Z,8.99
2023-05-02T07:59:59.846Z,9.01
2023-05-02T08:01:21.873Z,8.53
2023-05-02T08:02:44.426Z,8.47
2023-05-02T08:04:06.443Z,8.21
2023-05-02T08:05:28.092Z,8.90
2023-05-02T08:06:50.333Z,8.32
2023-05-02T08:08:12.310Z,8.31
2023-05-02T08:09:41.467Z,9.26
2023-05-02T08:11:10.719Z,9.20
2023-05-02T08:12:32.485Z,8.58
2023-05-02T08:13:54.407Z,9.18
2023-05-02T08:15:16.119Z,9.04
2023-05-02T08:16:40.408Z,9.50
2023-05-02T08:18:02.054Z,9.25
2023-05-02T08:19:35.148Z,8.75
2023-05-02T08:20:58.641Z,8.92
2023-05-02T08:22:24.815Z,8.69
2023-05-02T08:25:59.980Z,8.83
2023-05-02T08:27:20.051Z,8.65
2023-05-02T08:28:40.507Z,9.29
2023-05-02T08:30:01.304Z,9.09
2023-05-02T08:31:21.303Z,8.57
2023-05-02T08:32:54.105Z,8.54
2023-05-02T08:34:13.995Z,9.13
2023-05-02T08:35:39.801Z,8.79
2023-05-02T08:36:59.849Z,8.96
2023-05-02T08:38:19.729Z,8.96
2023-05-02T08:39:40.177Z,8.67
2023-05-02T08:41:00.622Z,9.13
2023-05-02T08:42:20.808Z,9.16
2023-05-02T08:43:41.385Z,9.50
2023-05-02T08:45:01.442Z,9.28
2023-05-02T08:46:21.450Z,9.19
2023-05-02T08:47:42.338Z,9.72
2023-05-02T08:49:02.792Z,8.85
2023-05-02T08:50:22.696Z,9.12
2023-05-02T08:51:50.958Z,9.01
2023-05-02T08:53:10.975Z,9.81
2023-05-02T08:54:34.061Z,10.05
2023-05-02T08:55:54.782Z,9.22
2023-05-02T08:57:14.904Z,9.31
2023-05-02T08:58:35.357Z,9.08
2023-05-02T08:59:56.022Z,10.00
2023-05-02T09:01:20.585Z,9.36
2023-05-02T09:02:43.649Z,9.72
2023-05-02T09:04:04.192Z,9.47
2023-05-02T09:05:24.788Z,9.07
2023-05-02T09:06:45.012Z,9.53
2023-05-02T09:08:05.291Z,9.52
2023-05-02T09:09:37.123Z,9.27
2023-05-02T09:10:58.067Z,9.41
2023-05-02T09:12:20.310Z,9.32
2023-05-02T09:13:40.589Z,9.88
2023-05-02T09:15:01.114Z,9.32
2023-05-02T09:16:24.848Z,9.88
2023-05-02T09:17:45.466Z,9.88
2023-05-02T09:19:05.669Z,9.23
2023-05-02T09:20:25.934Z,9.36
2023-05-02T09:21:54.210Z,9.72
2023-05-02T09:23:14.595Z,9.76
2023-05-02T09:24:37.467Z,9.99
2023-05-02T09:25:57.551Z,10.63
2023-05-02T09:27:17.669Z,10.47
2023-05-02T09:28:37.961Z,10.13
2023-05-02T09:29:58.282Z,9.65
2023-05-02T09:31:27.011Z,10.07
2023-05-02T09:32:59.300Z,10.59
2023-05-02T09:34:19.315Z,10.83
2023-05-02T09:35:39.480Z,10.61
2023-05-02T09:36:59.719Z,10.04
2023-05-02T09:38:24.951Z,10.13
2023-05-02T09:39:45.178Z,11.76
2023-05-02T09:41:08.101Z,10.77
2023-05-02T09:42:27.988Z,10.86
2023-05-02T09:43:51.165Z,11.19
2023-05-02T09:45:11.196Z,11.10
2023-05-02T09:46:34.035Z,10.91
2023-05-02T09:47:54.664Z,11.22
2023-05-02T09:49:14.613Z,11.51
2023-05-02T09:50:35.406Z,11.46
2023-05-02T09:51:56.012Z,10.78
2023-05-02T09:53:16.258Z,10.77
2023-05-02T09:54:37.254Z,10.82
2023-05-02T09:55:57.073Z,11.27
2023-05-02T09:57:20.225Z,11.04
2023-05-02T09:58:41.061Z,10.24
2023-05-02T10:00:04.271Z,10.40
2023-05-02T10:01:32.762Z,9.78
2023-05-02T10:02:53.323Z,9.99
2023-05-02T10:04:18.001Z,9.85
2023-05-02T10:05:38.463Z,9.34
2023-05-02T10:06:58.884Z,9.57
2023-05-02T10:08:19.059Z,9.43
2023-05-02T10:09:39.608Z,9.91
2023-05-02T10:11:00.270Z,9.95
2023-05-02T10:12:20.486Z,8.80
2023-05-02T10:13:42.087Z,9.60
2023-05-02T10:15:02.384Z,9.65
2023-05-02T10:16:30.334Z,9.51
2023-05-02T10:17:51.323Z,9.25
2023-05-02T10:19:11.583Z,9.62
2023-05-02T10:20:31.998Z,9.52
2023-05-02T10:21:52.641Z,9.01
2023-05-02T10:23:14.711Z,9.46
2023-05-02T10:24:35.214Z,9.70
2023-05-02T10:25:56.043Z,9.55
2023-05-02T10:27:17.291Z,9.58
2023-05-02T10:28:37.737Z,9.89
2023-05-02T10:29:58.314Z,9.79
2023-05-02T10:31:18.275Z,9.74
2023-05-02T10:32:38.704Z,9.80
2023-05-02T10:33:59.076Z,9.37
2023-05-02T10:35:18.760Z,9.62
2023-05-02T10:36:39.110Z,9.38
2023-05-02T10:37:59.273Z,9.70
2023-05-02T10:39:23.639Z,9.44
2023-05-02T10:40:44.125Z,9.93
2023-05-02T10:42:04.897Z,9.19
2023-05-02T10:43:25.159Z,8.83
2023-05-02T10:44:46.110Z,8.92
2023-05-02T10:46:06.604Z,8.61
2023-05-02T10:47:27.198Z,7.80
2023-05-02T10:48:47.896Z,8.07
2023-05-02T10:50:08.063Z,8.44
2023-05-02T10:51:29.021Z,8.03
2023-05-02T10:52:49.771Z,8.58
2023-05-02T10:54:12.982Z,8.24
2023-05-02T10:55:33.201Z,8.96
2023-05-02T10:57:05.304Z,8.30
2023-05-02T10:58:27.803Z,8.39
2023-05-02T10:59:48.976Z,7.89
2023-05-02T11:01:09.115Z,7.96
2023-05-02T11:02:30.182Z,8.81
2023-05-02T11:03:50.963Z,8.61
2023-05-02T11:05:11.310Z,8.79
2023-05-02T11:06:32.731Z,8.39
2023-05-02T11:07:53.371Z,9.07
2023-05-02T11:09:14.317Z,8.57
2023-05-02T11:10:34.553Z,7.96
2023-05-02T11:11:55.753Z,8.89
2023-05-02T11:13:15.794Z,7.95
2023-05-02T11:14:36.333Z,8.18
2023-05-02T11:15:56.567Z,9.01
2023-05-02T11:17:16.798Z,8.82
2023-05-02T11:18:37.214Z,8.14
2023-05-02T11:19:57.332Z,8.82
2023-05-02T11:21:17.506Z,8.59
2023-05-02T11:22:37.865Z,8.60
2023-05-02T11:23:58.376Z,8.62
2023-05-02T11:25:30.993Z,9.02
2023-05-02T11:26:51.859Z,8.53
2023-05-02T11:28:12.189Z,8.46
2023-05-02T11:29:32.295Z,9.15
2023-05-02T11:30:56.123Z,9.37
2023-05-02T11:32:16.847Z,8.91
2023-05-02T11:33:37.720Z,8.56
2023-05-02T11:34:58.246Z,9.36
2023-05-02T11:36:18.677Z,9.40
2023-05-02T11:37:39.049Z,10.11
2023-05-02T11:38:58.973Z,9.59
2023-05-02T11:40:22.065Z,9.72
2023-05-02T11:41:42.171Z,9.59
2023-05-02T11:43:02.328Z,9.47
2023-05-02T11:44:22.398Z,9.37
2023-05-02T11:45:43.015Z,9.75
2023-05-02T11:47:03.857Z,9.55
2023-05-02T11:48:27.070Z,9.56
2023-05-02T11:49:47.392Z,9.77
2023-05-02T11:51:07.782Z,9.38
2023-05-02T11:52:30.592Z,9.37
2023-05-02T11:53:52.223Z,9.45
2023-05-02T11:55:12.409Z,9.65
2023-05-02T11:56:32.376Z,10.07
2023-05-02T11:57:52.822Z,9.75
2023-05-02T11:59:12.841Z,9.54
2023-05-02T12:00:33.007Z,9.79
2023-05-02T12:01:55.182Z,10.38
2023-05-02T12:03:14.973Z,10.46
2023-05-02T12:04:35.495Z,9.97
2023-05-02T12:06:09.150Z,10.43
2023-05-02T12:07:32.277Z,9.99
2023-05-02T12:08:54.849Z,10.35
2023-05-02T12:10:17.179Z,10.64
2023-05-02T12:11:38.191Z,10.73
2023-05-02T12:12:58.269Z,10.46
2023-05-02T12:14:19.654Z,10.58
2023-05-02T12:15:40.370Z,10.89
2023-05-02T12:17:00.870Z,10.16
2023-05-02T12:18:22.709Z,10.88
2023-05-02T12:19:42.921Z,10.75
2023-05-02T12:21:02.933Z,10.78
2023-05-02T12:22:22.699Z,11.22
2023-05-02T12:23:44.111Z,11.33
2023-05-02T12:25:06.735Z,10.69
2023-05-02T12:26:31.934Z,10.95
2023-05-02T12:27:52.712Z,10.86
2023-05-02T12:29:12.855Z,10.77
2023-05-02T12:30:35.243Z,11.39
2023-05-02T12:32:07.706Z,11.47
2023-05-02T12:33:27.823Z,11.46
2023-05-02T12:34:48.889Z,11.30
2023-05-02T12:36:09.629Z,10.95
2023-05-02T12:37:31.989Z,12.49
2023-05-02T12:38:54.560Z,13.44
2023-05-02T12:40:17.562Z,14.52
2023-05-02T12:41:45.298Z,19.38
2023-05-02T12:43:07.733Z,18.16
2023-05-02T12:44:27.658Z,17.84
2023-05-02T12:45:49.154Z,16.55
2023-05-02T12:47:09.575Z,14.64
2023-05-02T12:48:30.096Z,12.80
2023-05-02T12:49:51.325Z,13.97
2023-05-02T12:51:12.158Z,13.06
2023-05-02T12:52:32.232Z,12.43
2023-05-02T12:53:52.776Z,11.11
2023-05-02T12:55:13.045Z,10.86
2023-05-02T12:56:33.984Z,11.10
2023-05-02T12:57:54.704Z,11.12
2023-05-02T12:59:14.888Z,10.98
2023-05-02T13:00:34.872Z,11.65
2023-05-02T13:01:55.585Z,11.97
2023-05-02T13:03:16.324Z,11.98
2023-05-02T13:04:42.089Z,11.66
2023-05-02T13:06:02.672Z,11.10
2023-05-02T13:07:22.571Z,10.83
2023-05-02T13:08:42.886Z,11.05
2023-05-02T13:10:05.701Z,12.87
2023-05-02T13:11:25.567Z,13.04
2023-05-02T13:12:47.404Z,11.69
2023-05-02T13:14:07.306Z,12.93
2023-05-02T13:15:27.037Z,13.20
2023-05-02T13:16:47.446Z,13.33
2023-05-02T13:18:10.109Z,13.08
2023-05-02T13:19:35.945Z,13.45
2023-05-02T13:20:58.246Z,11.32
2023-05-02T13:22:20.791Z,11.37
2023-05-02T13:23:43.390Z,10.20
2023-05-02T13:25:06.768Z,10.84
2023-05-02T13:26:26.571Z,11.26
2023-05-02T13:27:50.177Z,11.48
2023-05-02T13:29:12.381Z,12.05
2023-05-02T13:30:32.502Z,11.28
2023-05-02T13:31:53.266Z,11.12
2023-05-02T13:33:13.397Z,12.01
2023-05-02T13:34:35.929Z,11.57
2023-05-02T13:35:56.828Z,12.14
2023-05-02T13:37:19.274Z,11.65
2023-05-02T13:38:39.885Z,16.19
2023-05-02T13:40:00.862Z,12.50
2023-05-02T13:41:21.330Z,12.87
2023-05-02T13:42:41.981Z,11.73
2023-05-02T13:44:05.009Z,12.02
2023-05-02T13:45:25.257Z,13.30
2023-05-02T13:46:46.446Z,12.47
2023-05-02T13:48:06.785Z,11.51
2023-05-02T13:49:27.332Z,11.30
2023-05-02T13:50:48.157Z,11.57
2023-05-02T13:52:08.075Z,11.37
2023-05-02T13:53:28.090Z,11.32
2023-05-02T13:54:49.035Z,11.15
2023-05-02T13:56:09.396Z,12.11
2023-05-02T13:57:31.889Z,11.21
2023-05-02T13:59:00.054Z,11.67
2023-05-02T14:00:20.434Z,11.19
2023-05-02T14:01:40.970Z,11.32
2023-05-02T14:03:10.672Z,10.77
2023-05-02T14:04:31.076Z,10.95
2023-05-02T14:05:54.093Z,10.99
2023-05-02T14:07:21.762Z,10.42
2023-05-02T14:08:44.660Z,10.78
2023-05-02T14:10:04.969Z,11.09
2023-05-02T14:11:25.220Z,10.52
2023-05-02T14:12:45.851Z,11.24
2023-05-02T14:14:09.077Z,10.24
2023-05-02T14:15:31.651Z,10.37
2023-05-02T14:17:07.163Z,10.06
2023-05-02T14:18:27.041Z,10.75
2023-05-02T14:19:48.437Z,10.83
2023-05-02T14:21:08.921Z,11.39
2023-05-02T14:22:28.984Z,12.27
2023-05-02T14:23:49.603Z,11.64
2023-05-02T14:25:13.418Z,12.10
2023-05-02T14:26:35.565Z,10.94
2023-05-02T14:27:56.477Z,11.07
2023-05-02T14:29:17.785Z,10.58
2023-05-02T14:30:37.885Z,10.96
2023-05-02T14:32:07.733Z,11.10
2023-05-02T14:33:27.840Z,11.72
2023-05-02T14:34:48.636Z,11.44
2023-05-02T14:36:08.809Z,10.98
2023-05-02T14:37:28.663Z,19.11
2023-05-02T14:38:49.344Z,17.51
2023-05-02T14:40:10.053Z,18.19
2023-05-02T14:41:29.910Z,16.24
2023-05-02T14:42:51.216Z,13.23
2023-05-02T14:44:11.161Z,13.86
2023-05-02T14:45:31.080Z,13.42
2023-05-02T14:46:51.695Z,12.13
2023-05-02T14:48:13.427Z,11.65
2023-05-02T14:49:33.330Z,11.42
2023-05-02T14:50:54.077Z,13.39
2023-05-02T14:52:13.772Z,11.89
2023-05-02T14:53:33.805Z,11.09
2023-05-02T14:54:54.489Z,11.97
2023-05-02T14:56:16.458Z,11.12
2023-05-02T14:57:36.983Z,11.67
2023-05-02T14:59:00.025Z,10.80
2023-05-02T15:00:21.142Z,11.69
2023-05-02T15:01:41.465Z,11.20
2023-05-02T15:03:02.534Z,11.48
2023-05-02T15:04:26.000Z,11.66
2023-05-02T15:05:46.772Z,12.36
2023-05-02T15:07:09.521Z,12.28
2023-05-02T15:08:34.528Z,10.82
2023-05-02T15:10:17.932Z,11.17
2023-05-02T15:11:46.281Z,10.24
2023-05-02T15:13:07.954Z,10.80
2023-05-02T15:14:27.658Z,10.85
2023-05-02T15:15:53.105Z,12.28
2023-05-02T15:17:13.369Z,12.31
2023-05-02T15:18:33.700Z,12.09
2023-05-02T15:19:57.001Z,12.10
2023-05-02T15:21:19.162Z,11.80
2023-05-02T15:22:39.760Z,11.34
2023-05-02T15:24:00.110Z,11.24
2023-05-02T15:25:20.232Z,10.91
2023-05-02T15:26:40.652Z,11.08
2023-05-02T15:28:02.437Z,11.20
2023-05-02T15:29:22.234Z,10.45
2023-05-02T15:30:42.633Z,9.67
2023-05-02T15:32:02.568Z,10.01
2023-05-02T15:33:23.117Z,9.99
2023-05-02T15:34:43.887Z,10.10
2023-05-02T15:36:04.181Z,10.01
2023-05-02T15:37:23.929Z,9.41
2023-05-02T15:38:44.899Z,10.57
2023-05-02T15:40:06.320Z,10.68
2023-05-02T15:41:26.829Z,10.15
2023-05-02T15:42:51.887Z,10.71
2023-05-02T15:44:12.449Z,10.68
2023-05-02T15:45:33.358Z,10.31
2023-05-02T15:46:55.229Z,9.91
2023-05-02T15:48:15.486Z,9.94
2023-05-02T15:49:35.833Z,10.66
2023-05-02T15:50:56.982Z,10.33
2023-05-02T15:52:17.230Z,10.40
2023-05-02T15:53:41.740Z,10.90
2023-05-02T15:55:02.699Z,10.45
2023-05-02T15:56:23.006Z,10.24
2023-05-02T15:57:43.568Z,9.40
2023-05-02T15:59:03.879Z,10.18
2023-05-02T16:00:24.157Z,9.89
2023-05-02T16:01:46.892Z,9.98
2023-05-02T16:03:09.429Z,8.35
2023-05-02T16:04:31.336Z,9.06
2023-05-02T16:05:52.553Z,9.10
2023-05-02T16:07:12.447Z,8.92
2023-05-02T16:08:35.317Z,8.46
2023-05-02T16:09:56.084Z,8.97
2023-05-02T16:11:16.133Z,9.02
2023-05-02T16:12:36.434Z,8.02
2023-05-02T16:14:00.028Z,7.61
2023-05-02T16:15:20.420Z,7.86
2023-05-02T16:16:40.934Z,7.35
2023-05-02T16:18:01.428Z,7.52
2023-05-02T16:19:23.761Z,7.32
2023-05-02T16:20:44.368Z,7.27
2023-05-02T16:22:08.360Z,7.65
2023-05-02T16:23:28.430Z,7.97
2023-05-02T16:24:49.419Z,7.99
2023-05-02T16:26:23.405Z,7.60
2023-05-02T16:27:46.296Z,7.87
2023-05-02T16:29:06.857Z,8.43
2023-05-02T16:30:27.481Z,7.55
2023-05-02T16:31:48.472Z,8.42
2023-05-02T16:33:08.687Z,8.64
2023-05-02T16:34:28.626Z,8.45
2023-05-02T16:35:49.334Z,8.76
2023-05-02T16:37:09.245Z,8.41
2023-05-02T16:38:29.227Z,7.49
2023-05-02T16:39:49.438Z,7.68
2023-05-02T16:41:12.409Z,7.82
2023-05-02T16:42:32.629Z,7.08
2023-05-02T16:43:53.737Z,7.05
2023-05-02T16:45:14.566Z,6.97
2023-05-02T16:46:34.808Z,6.90
2023-05-02T16:47:56.277Z,6.22
2023-05-02T16:49:16.807Z,6.24
2023-05-02T16:50:36.574Z,6.11
2023-05-02T16:52:00.032Z,5.98
2023-05-02T16:53:20.506Z,5.94
2023-05-02T16:54:40.705Z,5.13
2023-05-02T16:56:01.633Z,5.55
2023-05-02T16:57:23.933Z,5.84
2023-05-02T16:58:44.690Z,6.09
2023-05-02T17:00:07.832Z,5.78
2023-05-02T17:01:30.436Z,6.53
2023-05-02T17:03:05.248Z,6.28
2023-05-02T17:04:37.233Z,6.40
2023-05-02T17:05:58.328Z,6.08
2023-05-02T17:07:18.207Z,6.06
2023-05-02T17:08:38.629Z,6.10
2023-05-02T17:09:58.952Z,5.97
2023-05-02T17:11:21.069Z,6.75
2023-05-02T17:12:42.984Z,6.84
2023-05-02T17:14:03.631Z,6.73
2023-05-02T17:15:23.568Z,7.09
2023-05-02T17:16:51.526Z,6.65
2023-05-02T17:18:13.880Z,6.41
2023-05-02T17:19:36.549Z,6.28
2023-05-02T17:20:57.251Z,6.15
2023-05-02T17:22:18.615Z,7.03
2023-05-02T17:23:49.076Z,6.82
2023-05-02T17:25:10.026Z,7.56
2023-05-02T17:26:32.581Z,8.89
2023-05-02T17:27:55.906Z,9.97
2023-05-02T17:29:16.073Z,10.46
2023-05-02T17:30:36.707Z,11.36
2023-05-02T17:31:59.869Z,11.02
2023-05-02T17:33:19.884Z,10.65
2023-05-02T17:34:42.825Z,10.17
2023-05-02T17:36:03.493Z,10.02
2023-05-02T17:37:23.408Z,10.32
2023-05-02T17:38:44.457Z,9.56
2023-05-02T17:40:05.157Z,9.61
2023-05-02T17:41:26.143Z,8.91
2023-05-02T17:42:46.951Z,9.33
2023-05-02T17:44:09.586Z,9.26
2023-05-02T17:45:29.910Z,9.94
2023-05-02T17:46:58.031Z,10.31
2023-05-02T17:48:18.215Z,9.71
